createdAt,value
2018-12-16T00:04:01.482Z,7.20
2018-12-16T00:14:29.522Z,7.60
2018-12-16T00:19:33.870Z,7.60
2018-12-16T00:24:38.660Z,7.90
2018-12-16T00:35:01.799Z,8.43
2018-12-16T00:40:09.210Z,8.37
2018-12-16T00:45:14.081Z,8.00
2018-12-16T00:55:40.319Z,7.40
2018-12-16T01:06:01.602Z,8.83
2018-12-16T01:11:06.277Z,9.17
2018-12-16T01:21:31.666Z,9.37
2018-12-16T01:26:36.122Z,9.30
2018-12-16T01:37:08.579Z,8.53
2018-12-16T01:47:35.214Z,9.37
2018-12-16T01:58:04.784Z,9.33
2018-12-16T02:03:09.474Z,10.07
2018-12-16T02:08:16.400Z,9.50
2018-12-16T02:18:40.932Z,8.40
2018-12-16T02:23:45.733Z,10.03
2018-12-16T02:28:51.306Z,10.13
2018-12-16T02:33:56.924Z,9.00
2018-12-16T02:39:01.811Z,9.53
2018-12-16T02:44:07.831Z,9.87
2018-12-16T02:49:13.194Z,8.87
2018-12-16T02:54:18.996Z,10.73
2018-12-16T02:59:23.741Z,9.77
2018-12-16T03:04:30.573Z,8.77
2018-12-16T03:09:36.005Z,8.60
2018-12-16T03:14:40.909Z,9.07
2018-12-16T03:19:45.951Z,8.20
2018-12-16T03:30:12.875Z,8.43
2018-12-16T03:35:18.019Z,9.83
2018-12-16T03:45:42.358Z,9.40
2018-12-16T03:50:46.883Z,9.53
2018-12-16T03:55:52.890Z,9.30
2018-12-16T04:00:59.218Z,8.47
2018-12-16T04:06:04.192Z,9.40
2018-12-16T04:11:09.768Z,8.77
2018-12-16T04:16:15.831Z,8.80
2018-12-16T04:21:21.354Z,8.93
2018-12-16T04:26:26.146Z,8.83
2018-12-16T04:31:31.602Z,9.00
2018-12-16T04:42:03.483Z,8.43
2018-12-16T04:47:08.223Z,9.37
2018-12-16T04:52:12.758Z,9.90
2018-12-16T04:57:17.749Z,9.43
2018-12-16T05:02:23.173Z,7.50
2018-12-16T05:12:48.302Z,9.33
2018-12-16T05:17:55.640Z,9.37
2018-12-16T05:23:01.599Z,7.73
2018-12-16T05:28:06.843Z,8.90
2018-12-16T05:33:11.609Z,7.97
2018-12-16T05:38:16.201Z,8.10
2018-12-16T05:43:22.132Z,8.13
2018-12-16T05:48:27.877Z,6.83
2018-12-16T05:53:36.004Z,6.10
2018-12-16T05:58:42.599Z,6.63
2018-12-16T06:03:49.514Z,6.10
2018-12-16T06:08:55.461Z,7.10
2018-12-16T06:14:00.893Z,7.33
2018-12-16T06:19:05.122Z,6.33
2018-12-16T06:24:11.052Z,5.57
2018-12-16T06:36:56.726Z,5.73
2018-12-16T06:47:32.891Z,6.50
2018-12-16T06:52:38.145Z,5.60
2018-12-16T06:57:43.142Z,6.30
2018-12-16T07:02:53.212Z,6.23
2018-12-16T07:07:59.602Z,6.93
2018-12-16T07:13:05.354Z,6.30
2018-12-16T07:18:11.005Z,5.57
2018-12-16T07:23:18.373Z,5.73
2018-12-16T07:33:40.262Z,6.03
2018-12-16T07:38:45.688Z,5.90
2018-12-16T07:43:51.176Z,6.13
2018-12-16T07:48:55.848Z,8.27
2018-12-16T07:54:00.078Z,7.30
2018-12-16T07:59:05.208Z,9.47
2018-12-16T08:09:31.310Z,6.73
2018-12-16T08:20:07.655Z,7.40
2018-12-16T08:30:40.558Z,6.97
2018-12-16T08:35:46.117Z,7.53
2018-12-16T08:40:51.188Z,7.57
2018-12-16T08:45:56.463Z,7.37
2018-12-16T08:51:02.856Z,6.07
2018-12-16T08:56:09.822Z,7.63
2018-12-16T09:06:36.041Z,6.40
2018-12-16T09:11:43.825Z,8.97
2018-12-16T09:16:49.167Z,6.37
2018-12-16T09:21:54.450Z,5.53
2018-12-16T09:27:00.592Z,6.70
2018-12-16T09:32:06.303Z,6.87
2018-12-16T09:37:12.361Z,6.87
2018-12-16T09:42:18.069Z,6.63
2018-12-16T09:52:44.041Z,8.00
2018-12-16T09:57:48.881Z,7.47
2018-12-16T10:02:53.646Z,7.60
2018-12-16T10:07:57.887Z,7.57
2018-12-16T10:13:02.163Z,7.83
2018-12-16T10:18:06.525Z,7.50
2018-12-16T10:28:32.540Z,13.17
2018-12-16T10:33:37.595Z,8.27
2018-12-16T10:38:43.507Z,8.03
2018-12-16T10:43:50.156Z,9.37
2018-12-16T10:48:56.965Z,10.30
2018-12-16T10:59:23.991Z,10.97
2018-12-16T11:04:29.128Z,10.03
2018-12-16T11:09:36.422Z,11.87
2018-12-16T11:14:42.279Z,11.57
2018-12-16T11:19:47.088Z,10.70
2018-12-16T11:24:52.423Z,10.73
2018-12-16T11:29:57.590Z,11.43
2018-12-16T11:35:02.215Z,9.20
2018-12-16T11:40:08.341Z,13.77
2018-12-16T11:45:13.745Z,11.20
2018-12-16T11:50:18.829Z,9.17
2018-12-16T11:55:23.159Z,11.07
2018-12-16T12:00:28.999Z,10.10
2018-12-16T12:05:35.144Z,10.33
2018-12-16T12:10:41.045Z,10.00
2018-12-16T12:15:47.341Z,9.80
2018-12-16T12:20:52.603Z,8.10
2018-12-16T12:25:57.225Z,9.50
2018-12-16T12:31:07.023Z,9.73
2018-12-16T12:41:44.346Z,10.40
2018-12-16T12:46:49.201Z,9.73
2018-12-16T12:51:57.413Z,10.50
2018-12-16T12:57:02.880Z,9.73
2018-12-16T13:02:08.283Z,10.50
2018-12-16T13:12:37.186Z,8.53
2018-12-16T13:17:45.735Z,9.63
2018-12-16T13:22:53.010Z,10.13
2018-12-16T13:33:19.294Z,10.30
2018-12-16T13:38:25.737Z,9.63
2018-12-16T13:48:59.284Z,9.53
2018-12-16T13:54:03.657Z,9.87
2018-12-16T13:59:08.045Z,9.63
2018-12-16T14:04:12.779Z,9.28
2018-12-16T14:14:40.344Z,11.67
2018-12-16T14:19:46.744Z,9.90
2018-12-16T14:24:51.381Z,11.60
2018-12-16T14:29:56.807Z,13.50
2018-12-16T14:35:01.668Z,15.63
2018-12-16T14:45:30.522Z,10.60
2018-12-16T14:50:36.586Z,10.17
2018-12-16T14:55:41.613Z,10.77
2018-12-16T15:00:47.644Z,10.00
2018-12-16T15:05:56.954Z,10.00
2018-12-16T15:11:02.945Z,10.97
2018-12-16T15:16:10.333Z,10.53
2018-12-16T15:21:15.688Z,9.23
2018-12-16T15:26:22.504Z,10.47
2018-12-16T15:31:27.494Z,10.67
2018-12-16T15:42:01.144Z,10.70
2018-12-16T15:47:05.664Z,11.20
2018-12-16T15:52:10.295Z,10.83
2018-12-16T15:57:15.166Z,10.77
2018-12-16T16:02:20.389Z,10.83
2018-12-16T16:07:26.328Z,10.77
2018-12-16T16:12:30.563Z,9.90
2018-12-16T16:23:01.624Z,10.33
2018-12-16T16:28:06.093Z,11.27
2018-12-16T16:33:10.663Z,11.27
2018-12-16T16:38:15.287Z,11.93
2018-12-16T16:43:19.777Z,9.83
2018-12-16T16:53:49.993Z,11.37
2018-12-16T16:58:55.113Z,11.27
2018-12-16T17:04:00.301Z,12.57
2018-12-16T17:09:08.580Z,11.37
2018-12-16T17:14:12.879Z,10.50
2018-12-16T17:19:17.530Z,10.60
2018-12-16T17:29:50.444Z,12.40
2018-12-16T17:34:54.830Z,10.17
2018-12-16T17:39:59.559Z,9.60
2018-12-16T17:45:05.273Z,11.00
2018-12-16T17:50:10.003Z,11.23
2018-12-16T17:55:15.197Z,11.73
2018-12-16T18:00:20.283Z,11.97
2018-12-16T18:05:25.682Z,11.70
2018-12-16T18:15:58.980Z,11.50
2018-12-16T18:21:04.309Z,12.00
2018-12-16T18:26:11.340Z,11.60
2018-12-16T18:31:17.536Z,12.20
2018-12-16T18:36:24.634Z,12.47
2018-12-16T18:41:31.108Z,13.50
2018-12-16T18:46:38.494Z,11.60
2018-12-16T18:51:45.742Z,10.90
2018-12-16T18:56:57.077Z,11.40
2018-12-16T19:02:05.626Z,12.60
2018-12-16T19:07:10.863Z,11.60
2018-12-16T19:17:40.116Z,12.03
2018-12-16T19:22:45.254Z,12.63
2018-12-16T19:27:49.883Z,13.17
2018-12-16T19:32:55.458Z,12.53
2018-12-16T19:38:03.107Z,13.43
2018-12-16T19:43:09.151Z,14.60
2018-12-16T19:48:46.095Z,12.10
2018-12-16T20:03:22.172Z,12.63
2018-12-16T20:08:28.081Z,12.53
2018-12-16T20:13:32.522Z,13.80
2018-12-16T20:18:38.056Z,13.63
2018-12-16T20:29:15.462Z,14.07
2018-12-16T20:34:20.162Z,15.27
2018-12-16T20:39:25.268Z,13.10
2018-12-16T20:44:30.061Z,14.87
2018-12-16T20:49:35.019Z,14.90
2018-12-16T20:54:40.474Z,14.50
2018-12-16T20:59:45.359Z,12.37
2018-12-16T21:04:50.851Z,13.50
2018-12-16T21:09:55.493Z,14.17
2018-12-16T21:15:06.504Z,14.20
2018-12-16T21:20:12.073Z,13.67
2018-12-16T21:30:39.981Z,14.47
2018-12-16T21:41:09.349Z,13.30
2018-12-16T21:51:54.221Z,13.77
2018-12-16T21:56:59.945Z,15.37
2018-12-16T22:02:05.794Z,14.77
2018-12-16T22:07:21.506Z,14.63
2018-12-16T22:12:28.642Z,14.63
2018-12-16T22:22:55.559Z,17.03
2018-12-16T22:33:22.402Z,17.13
2018-12-16T22:38:27.238Z,19.27
2018-12-16T22:43:31.909Z,17.83
2018-12-16T22:48:37.845Z,20.50
2018-12-16T22:53:43.529Z,19.50
2018-12-16T22:58:54.313Z,19.37
2018-12-16T23:03:58.549Z,18.10
2018-12-16T23:09:05.443Z,19.57
2018-12-16T23:14:12.701Z,18.85
2018-12-16T23:19:20.415Z,20.35
2018-12-16T23:30:00.855Z,19.13
2018-12-16T23:40:32.645Z,20.87
2018-12-16T23:45:38.643Z,19.77
2018-12-16T23:50:43.283Z,19.10
